createdAt,value
2023-04-08T00:00:21.911Z,11.27
2023-04-08T00:02:51.655Z,12.00
2023-04-08T00:05:21.401Z,9.10
2023-04-08T00:07:51.503Z,12.90
2023-04-08T00:10:25.171Z,15.35
2023-04-08T00:12:55.967Z,15.30
2023-04-08T00:15:25.983Z,16.15
2023-04-08T00:17:56.224Z,14.43
2023-04-08T00:20:26.377Z,8.70
2023-04-08T00:22:56.094Z,8.55
2023-04-08T00:25:28.445Z,7.93
2023-04-08T00:27:58.129Z,8.48
2023-04-08T00:30:28.411Z,7.72
2023-04-08T00:32:58.496Z,5.50
2023-04-08T00:35:28.408Z,8.88
2023-04-08T00:37:58.162Z,7.50
2023-04-08T00:40:30.532Z,7.18
2023-04-08T00:43:00.210Z,8.75
2023-04-08T00:45:29.990Z,5.15
2023-04-08T00:47:59.839Z,8.32
2023-04-08T00:50:29.642Z,10.13
2023-04-08T00:52:59.424Z,7.22
2023-04-08T00:55:31.785Z,6.97
2023-04-08T00:58:01.562Z,6.60
2023-04-08T01:00:32.245Z,8.18
2023-04-08T01:03:07.332Z,8.70
2023-04-08T01:05:40.616Z,7.53
2023-04-08T01:08:11.554Z,6.15
2023-04-08T01:10:45.886Z,7.57
2023-04-08T01:13:17.505Z,7.00
2023-04-08T01:15:47.944Z,6.97
2023-04-08T01:18:18.741Z,8.18
2023-04-08T01:20:48.559Z,7.85
2023-04-08T01:23:22.860Z,6.90
2023-04-08T01:25:55.661Z,5.20
2023-04-08T01:28:26.532Z,6.93
2023-04-08T01:30:57.993Z,6.97
2023-04-08T01:33:30.907Z,6.03
2023-04-08T01:36:01.438Z,7.30
2023-04-08T01:38:32.371Z,6.55
2023-04-08T01:41:05.872Z,6.15
2023-04-08T01:43:36.621Z,5.78
2023-04-08T01:46:08.835Z,6.88
2023-04-08T01:48:39.092Z,9.82
2023-04-08T01:51:09.431Z,7.03
2023-04-08T01:53:39.387Z,8.50
2023-04-08T01:56:14.082Z,8.48
2023-04-08T01:58:45.985Z,10.93
2023-04-08T02:01:16.981Z,7.13
2023-04-08T02:03:48.229Z,7.55
2023-04-08T02:06:17.969Z,9.48
2023-04-08T02:08:47.817Z,8.60
2023-04-08T02:11:20.284Z,13.10
2023-04-08T02:13:50.009Z,12.02
2023-04-08T02:16:22.925Z,9.07
2023-04-08T02:18:57.624Z,9.80
2023-04-08T02:21:31.235Z,10.88
2023-04-08T02:24:03.668Z,11.88
2023-04-08T02:26:36.956Z,9.25
2023-04-08T02:29:08.331Z,11.57
2023-04-08T02:31:38.422Z,7.80
2023-04-08T02:34:09.612Z,11.65
2023-04-08T02:36:39.336Z,12.70
2023-04-08T02:39:09.407Z,8.30
2023-04-08T02:41:41.695Z,7.38
2023-04-08T02:44:12.266Z,9.43
2023-04-08T02:46:43.920Z,10.90
2023-04-08T02:49:13.598Z,12.80
2023-04-08T02:51:43.286Z,11.27
2023-04-08T02:54:12.973Z,9.95
2023-04-08T02:56:45.357Z,11.88
2023-04-08T02:59:15.043Z,10.80
2023-04-08T03:01:44.871Z,13.80
2023-04-08T03:04:14.616Z,12.77
2023-04-08T03:06:44.288Z,12.48
2023-04-08T03:09:13.950Z,10.85
2023-04-08T03:11:46.635Z,9.82
2023-04-08T03:14:18.200Z,12.77
2023-04-08T03:16:47.919Z,9.38
2023-04-08T03:19:17.623Z,9.57
2023-04-08T03:21:47.405Z,9.95
2023-04-08T03:24:17.102Z,6.35
2023-04-08T03:26:49.377Z,9.60
2023-04-08T03:29:19.108Z,7.13
2023-04-08T03:31:49.083Z,7.72
2023-04-08T03:34:18.865Z,8.30
2023-04-08T03:36:48.544Z,7.20
2023-04-08T03:39:18.361Z,8.18
2023-04-08T03:41:50.910Z,8.82
2023-04-08T03:44:20.608Z,6.63
2023-04-08T03:46:50.256Z,6.70
2023-04-08T03:49:19.931Z,8.80
2023-04-08T03:51:49.613Z,9.85
2023-04-08T03:54:19.289Z,9.88
2023-04-08T03:56:51.973Z,17.63
2023-04-08T03:59:21.666Z,11.65
2023-04-08T04:01:51.617Z,15.05
2023-04-08T04:04:21.978Z,20.77
2023-04-08T04:06:51.791Z,15.40
2023-04-08T04:09:21.491Z,19.05
2023-04-08T04:11:53.792Z,18.58
2023-04-08T04:14:23.545Z,19.65
2023-04-08T04:16:53.229Z,23.05
2023-04-08T04:19:22.925Z,18.95
2023-04-08T04:21:52.649Z,15.65
2023-04-08T04:24:22.319Z,22.38
2023-04-08T04:26:54.630Z,19.48
2023-04-08T04:29:24.520Z,19.15
2023-04-08T04:31:54.197Z,21.13
2023-04-08T04:34:23.876Z,21.83
2023-04-08T04:36:53.581Z,19.42
2023-04-08T04:39:23.235Z,21.40
2023-04-08T04:41:55.584Z,21.88
2023-04-08T04:44:25.800Z,20.60
2023-04-08T04:46:55.539Z,18.20
2023-04-08T04:49:25.280Z,21.83
2023-04-08T04:51:55.004Z,23.50
2023-04-08T04:54:24.723Z,26.73
2023-04-08T04:56:56.997Z,23.98
2023-04-08T04:59:26.661Z,29.58
2023-04-08T05:01:57.962Z,21.65
2023-04-08T05:04:27.803Z,25.17
2023-04-08T05:06:57.632Z,25.55
2023-04-08T05:09:27.351Z,26.63
2023-04-08T05:11:59.656Z,29.40
2023-04-08T05:14:31.870Z,29.67
2023-04-08T05:17:01.572Z,31.55
2023-04-08T05:19:31.369Z,30.65
2023-04-08T05:22:01.159Z,41.10
2023-04-08T05:24:31.043Z,34.97
2023-04-08T05:27:03.371Z,23.80
2023-04-08T05:29:33.066Z,36.83
2023-04-08T05:32:02.747Z,32.50
2023-04-08T05:34:34.466Z,25.20
2023-04-08T05:37:04.138Z,31.02
2023-04-08T05:39:33.815Z,30.92
2023-04-08T05:42:06.250Z,41.90
2023-04-08T05:44:35.976Z,33.50
2023-04-08T05:47:05.812Z,37.80
2023-04-08T05:49:36.649Z,41.50
2023-04-08T05:52:07.124Z,44.63
2023-04-08T05:54:36.812Z,41.40
2023-04-08T05:57:10.513Z,42.25
2023-04-08T05:59:40.315Z,49.88
2023-04-08T06:02:10.331Z,48.60
2023-04-08T06:04:40.275Z,54.00
2023-04-08T06:07:10.262Z,57.65
2023-04-08T06:09:40.217Z,53.65
2023-04-08T06:12:12.558Z,24.23
2023-04-08T06:14:42.301Z,41.13
2023-04-08T06:17:12.054Z,51.03
2023-04-08T06:19:41.834Z,58.83
2023-04-08T06:22:11.530Z,42.05
2023-04-08T06:24:41.199Z,41.38
2023-04-08T06:27:13.521Z,19.02
2023-04-08T06:29:43.345Z,23.75
2023-04-08T06:32:13.228Z,44.65
2023-04-08T06:34:42.960Z,35.97
2023-04-08T06:37:12.828Z,34.83
2023-04-08T06:39:42.559Z,28.10
2023-04-08T06:45:10.602Z,30.63
2023-04-08T06:47:40.469Z,37.17
2023-04-08T06:50:10.989Z,58.30
2023-04-08T06:52:40.700Z,48.10
2023-04-08T06:55:10.817Z,25.48
2023-04-08T06:57:43.077Z,39.45
2023-04-08T07:00:13.502Z,58.75
2023-04-08T07:02:43.319Z,82.82
2023-04-08T07:05:13.150Z,53.60
2023-04-08T07:07:42.845Z,64.70
2023-04-08T07:10:13.116Z,50.92
2023-04-08T07:12:45.650Z,44.17
2023-04-08T07:15:15.297Z,50.78
2023-04-08T07:17:45.010Z,82.93
2023-04-08T07:20:15.847Z,60.03
2023-04-08T07:22:45.676Z,58.05
2023-04-08T07:25:15.321Z,57.00
2023-04-08T07:27:47.645Z,51.75
2023-04-08T07:30:17.310Z,63.97
2023-04-08T07:32:47.031Z,69.80
2023-04-08T07:35:24.153Z,91.63
2023-04-08T07:37:54.613Z,63.67
2023-04-08T07:40:24.309Z,112.00
2023-04-08T07:42:56.672Z,84.07
2023-04-08T07:45:26.339Z,35.33
2023-04-08T07:47:56.125Z,38.88
2023-04-08T07:50:25.976Z,50.42
2023-04-08T07:52:56.909Z,51.50
2023-04-08T07:55:26.582Z,40.42
2023-04-08T07:57:58.937Z,41.75
2023-04-08T08:00:30.440Z,52.42
2023-04-08T08:03:00.308Z,48.42
2023-04-08T08:05:30.051Z,54.05
2023-04-08T08:07:59.712Z,71.55
2023-04-08T08:10:29.601Z,55.60
2023-04-08T08:13:01.897Z,44.95
2023-04-08T08:15:31.585Z,48.90
2023-04-08T08:18:01.387Z,42.80
2023-04-08T08:20:31.145Z,51.95
2023-04-08T08:23:00.789Z,50.08
2023-04-08T08:25:30.489Z,37.85
2023-04-08T08:28:02.763Z,60.05
2023-04-08T08:30:33.973Z,71.65
2023-04-08T08:33:03.862Z,67.82
2023-04-08T08:35:33.645Z,56.80
2023-04-08T08:38:03.518Z,41.03
2023-04-08T08:40:33.332Z,52.10
2023-04-08T08:43:05.660Z,51.55
2023-04-08T08:45:36.217Z,49.20
2023-04-08T08:48:06.169Z,46.83
2023-04-08T08:50:36.162Z,38.15
2023-04-08T08:53:06.433Z,47.63
2023-04-08T08:56:02.113Z,56.55
2023-04-08T08:58:32.099Z,55.80
2023-04-08T09:01:01.812Z,60.30
2023-04-08T09:03:31.980Z,48.58
2023-04-08T09:06:02.338Z,54.75
2023-04-08T09:08:33.106Z,63.10
2023-04-08T09:11:17.599Z,60.72
2023-04-08T09:13:50.615Z,58.88
2023-04-08T09:16:23.546Z,47.00
2023-04-08T09:18:53.408Z,54.72
2023-04-08T09:21:27.614Z,50.10
2023-04-08T09:23:57.281Z,47.13
2023-04-08T09:26:27.709Z,37.15
2023-04-08T09:29:14.331Z,44.65
2023-04-08T09:31:56.949Z,54.60
2023-04-08T09:34:27.623Z,52.80
2023-04-08T09:36:57.636Z,41.72
2023-04-08T09:39:27.407Z,35.38
2023-04-08T09:41:58.355Z,28.52
2023-04-08T09:44:31.774Z,42.10
2023-04-08T09:47:04.891Z,30.83
2023-04-08T09:49:37.401Z,31.92
2023-04-08T09:52:09.922Z,27.40
2023-04-08T09:54:47.164Z,30.48
2023-04-08T09:57:24.605Z,36.28
2023-04-08T10:00:01.603Z,38.05
2023-04-08T10:02:33.602Z,42.72
2023-04-08T10:05:06.261Z,41.83
2023-04-08T10:07:37.907Z,33.83
2023-04-08T10:10:09.524Z,39.63
2023-04-08T10:12:39.457Z,37.78
2023-04-08T10:15:23.895Z,27.65
2023-04-08T10:17:56.324Z,25.73
2023-04-08T10:20:41.006Z,23.65
2023-04-08T10:23:11.654Z,33.45
2023-04-08T10:25:41.839Z,53.13
2023-04-08T10:28:27.511Z,35.78
2023-04-08T10:30:57.874Z,23.15
2023-04-08T10:33:34.967Z,37.30
2023-04-08T10:36:12.646Z,43.05
2023-04-08T10:38:42.884Z,36.38
2023-04-08T10:41:14.491Z,30.92
2023-04-08T10:43:44.273Z,33.10
2023-04-08T10:46:14.602Z,53.28
2023-04-08T10:48:47.084Z,37.85
2023-04-08T10:51:16.954Z,25.65
2023-04-08T10:53:46.660Z,39.58
2023-04-08T10:56:18.458Z,34.67
2023-04-08T10:58:51.959Z,25.23
2023-04-08T11:01:22.004Z,31.40
2023-04-08T11:03:54.531Z,42.80
2023-04-08T11:06:25.081Z,36.38
2023-04-08T11:08:54.788Z,33.75
2023-04-08T11:11:29.701Z,26.95
2023-04-08T11:13:59.757Z,28.70
2023-04-08T11:16:30.429Z,28.98
2023-04-08T11:19:02.967Z,32.35
2023-04-08T11:21:33.453Z,41.30
2023-04-08T11:24:03.148Z,33.42
2023-04-08T11:26:33.442Z,27.90
2023-04-08T11:29:03.259Z,61.83
2023-04-08T11:31:33.201Z,28.23
2023-04-08T11:34:05.538Z,42.10
2023-04-08T11:36:36.935Z,33.72
2023-04-08T11:39:10.042Z,35.38
2023-04-08T11:41:41.033Z,34.63
2023-04-08T11:44:10.879Z,40.45
2023-04-08T11:46:41.288Z,48.83
2023-04-08T11:49:13.627Z,39.03
2023-04-08T11:51:57.872Z,37.90
2023-04-08T11:54:32.217Z,25.52
2023-04-08T11:57:03.318Z,29.08
2023-04-08T11:59:33.006Z,31.42
2023-04-08T12:02:02.754Z,33.75
2023-04-08T12:04:35.275Z,300.73
2023-04-08T12:07:04.985Z,159.30
2023-04-08T12:09:34.698Z,133.27
2023-04-08T12:12:04.553Z,25.85
2023-04-08T12:14:34.236Z,37.35
2023-04-08T12:17:03.932Z,23.90
2023-04-08T12:19:38.221Z,25.48
2023-04-08T12:22:08.304Z,26.15
2023-04-08T12:24:38.009Z,31.23
2023-04-08T12:27:07.680Z,23.25
2023-04-08T12:29:37.454Z,25.33
2023-04-08T12:32:07.375Z,31.45
2023-04-08T12:34:39.618Z,26.67
2023-04-08T12:37:09.321Z,16.23
2023-04-08T12:39:39.033Z,24.50
2023-04-08T12:42:08.707Z,33.15
2023-04-08T12:44:38.440Z,33.08
2023-04-08T12:47:08.323Z,34.70
2023-04-08T12:52:13.626Z,30.08
2023-04-08T12:54:43.273Z,23.90
2023-04-08T12:57:13.097Z,23.27
2023-04-08T12:59:42.825Z,26.50
2023-04-08T13:02:12.562Z,22.13
2023-04-08T13:04:45.088Z,52.42
2023-04-08T13:07:14.740Z,40.97
2023-04-08T13:09:45.871Z,27.00
2023-04-08T13:12:16.515Z,24.55
2023-04-08T13:14:46.642Z,51.05
2023-04-08T13:17:16.605Z,53.78
2023-04-08T13:19:50.310Z,34.65
2023-04-08T13:22:19.956Z,25.52
2023-04-08T13:24:49.648Z,26.70
2023-04-08T13:27:19.344Z,25.17
2023-04-08T13:29:48.996Z,54.90
2023-04-08T13:32:18.732Z,27.30
2023-04-08T13:34:51.054Z,32.45
2023-04-08T13:37:20.757Z,27.65
2023-04-08T13:39:50.454Z,23.70
2023-04-08T13:42:20.269Z,24.98
2023-04-08T13:44:49.948Z,31.45
2023-04-08T13:47:19.593Z,26.42
2023-04-08T13:49:51.993Z,23.15
2023-04-08T13:52:21.668Z,19.58
2023-04-08T13:54:51.348Z,21.85
2023-04-08T13:57:21.241Z,20.95
2023-04-08T13:59:51.034Z,21.83
2023-04-08T14:02:21.785Z,25.48
2023-04-08T14:04:54.405Z,20.08
2023-04-08T14:07:24.193Z,36.85
2023-04-08T14:09:53.911Z,29.25
2023-04-08T14:12:23.587Z,19.65
2023-04-08T14:14:53.326Z,19.40
2023-04-08T14:17:23.160Z,21.88
2023-04-08T14:19:55.646Z,21.52
2023-04-08T14:22:25.306Z,21.30
2023-04-08T14:24:54.997Z,20.20
2023-04-08T14:27:24.670Z,19.48
2023-04-08T14:29:54.349Z,21.25
2023-04-08T14:32:24.039Z,18.67
2023-04-08T14:34:56.344Z,20.23
2023-04-08T14:37:26.167Z,22.08
2023-04-08T14:39:55.976Z,21.67
2023-04-08T14:42:25.650Z,19.48
2023-04-08T14:44:55.462Z,20.42
2023-04-08T14:47:25.141Z,22.42
2023-04-08T14:49:57.436Z,20.20
2023-04-08T14:52:27.566Z,20.60
2023-04-08T14:54:57.233Z,21.27
2023-04-08T14:57:27.565Z,25.02
2023-04-08T14:59:57.269Z,25.50
2023-04-08T15:02:27.345Z,22.30
2023-04-08T15:04:59.676Z,22.55
2023-04-08T15:07:29.346Z,24.98
2023-04-08T15:09:59.497Z,21.60
2023-04-08T15:12:29.347Z,23.92
2023-04-08T15:14:59.007Z,23.00
2023-04-08T15:17:28.892Z,28.17
2023-04-08T15:20:01.447Z,26.98
2023-04-08T15:22:31.219Z,26.33
2023-04-08T15:25:01.182Z,28.17
2023-04-08T15:27:30.840Z,27.80
2023-04-08T15:30:00.754Z,23.77
2023-04-08T15:32:30.960Z,21.38
2023-04-08T15:35:03.378Z,22.90
2023-04-08T15:37:33.113Z,22.83
2023-04-08T15:40:02.838Z,22.60
2023-04-08T15:42:32.504Z,23.77
2023-04-08T15:45:02.208Z,23.20
2023-04-08T15:47:31.949Z,23.02
2023-04-08T15:50:04.357Z,25.80
2023-04-08T15:52:35.398Z,25.27
2023-04-08T15:55:05.601Z,24.08
2023-04-08T15:57:36.812Z,25.58
2023-04-08T16:00:09.860Z,21.55
2023-04-08T16:02:42.658Z,22.42
2023-04-08T16:05:15.928Z,22.20
2023-04-08T16:07:45.650Z,19.98
2023-04-08T16:10:15.760Z,23.73
2023-04-08T16:12:46.422Z,26.35
2023-04-08T16:15:16.509Z,36.33
2023-04-08T16:17:46.358Z,31.42
2023-04-08T16:20:20.507Z,27.50
2023-04-08T16:22:50.484Z,27.80
2023-04-08T16:25:20.321Z,28.98
2023-04-08T16:27:50.467Z,28.83
2023-04-08T16:30:20.256Z,58.15
2023-04-08T16:32:50.412Z,83.28
2023-04-08T16:35:22.777Z,71.60
2023-04-08T16:37:52.469Z,78.93
2023-04-08T16:40:22.270Z,32.60
2023-04-08T16:42:52.554Z,25.05
2023-04-08T16:45:22.384Z,27.77
2023-04-08T16:47:52.330Z,35.55
2023-04-08T16:50:24.792Z,40.03
2023-04-08T16:52:54.494Z,39.08
2023-04-08T16:55:24.184Z,31.55
2023-04-08T16:57:53.846Z,25.65
2023-04-08T17:00:23.568Z,37.90
2023-04-08T17:02:55.705Z,133.70
2023-04-08T17:05:28.310Z,41.17
2023-04-08T17:07:59.346Z,67.00
2023-04-08T17:10:29.092Z,130.57
2023-04-08T17:12:58.796Z,49.33
2023-04-08T17:15:28.569Z,71.55
2023-04-08T17:17:58.306Z,88.32
2023-04-08T17:20:30.672Z,43.15
2023-04-08T17:23:00.364Z,52.70
2023-04-08T17:25:30.039Z,40.72
2023-04-08T17:27:59.727Z,73.60
2023-04-08T17:30:29.426Z,66.50
2023-04-08T17:32:59.182Z,44.85
2023-04-08T17:35:31.684Z,33.58
2023-04-08T17:38:03.274Z,50.28
2023-04-08T17:40:32.974Z,40.13
2023-04-08T17:43:02.668Z,41.50
2023-04-08T17:45:32.741Z,52.08
2023-04-08T17:48:06.376Z,53.95
2023-04-08T17:50:40.481Z,53.20
2023-04-08T17:53:10.157Z,95.53
2023-04-08T17:55:39.846Z,59.83
2023-04-08T17:58:09.489Z,79.30
2023-04-08T18:00:39.189Z,85.13
2023-04-08T18:03:09.361Z,67.75
2023-04-08T18:05:41.789Z,79.80
2023-04-08T18:08:11.869Z,85.97
2023-04-08T18:10:43.437Z,101.20
2023-04-08T18:13:13.290Z,94.35
2023-04-08T18:15:43.020Z,94.22
2023-04-08T18:18:12.701Z,77.20
2023-04-08T18:20:45.014Z,62.00
2023-04-08T18:23:14.706Z,68.50
2023-04-08T18:25:44.949Z,107.57
2023-04-08T18:28:14.644Z,148.20
2023-04-08T18:30:44.440Z,123.82
2023-04-08T18:33:14.180Z,101.55
2023-04-08T18:35:47.123Z,108.32
2023-04-08T18:38:17.206Z,120.72
2023-04-08T18:40:47.505Z,95.82
2023-04-08T18:43:17.344Z,101.47
2023-04-08T18:45:47.045Z,72.35
2023-04-08T18:48:16.760Z,81.53
2023-04-08T18:50:49.021Z,77.00
2023-04-08T18:53:18.710Z,73.05
2023-04-08T18:55:48.386Z,49.45
2023-04-08T18:58:18.112Z,41.63
2023-04-08T19:00:47.890Z,40.28
2023-04-08T19:03:17.710Z,53.53
2023-04-08T19:05:50.063Z,43.20
2023-04-08T19:08:19.774Z,56.85
2023-04-08T19:10:49.484Z,91.82
2023-04-08T19:13:19.177Z,78.32
2023-04-08T19:15:48.902Z,85.65
2023-04-08T19:18:18.768Z,80.65
2023-04-08T19:20:51.102Z,48.03
2023-04-08T19:23:20.781Z,49.90
2023-04-08T19:25:50.607Z,41.45
2023-04-08T19:28:20.909Z,46.85
2023-04-08T19:30:51.173Z,55.22
2023-04-08T19:33:21.233Z,70.97
2023-04-08T19:35:54.043Z,97.45
2023-04-08T19:38:23.802Z,63.25
2023-04-08T19:40:53.516Z,124.13
2023-04-08T19:43:23.185Z,52.17
2023-04-08T19:45:55.841Z,51.72
2023-04-08T19:48:25.693Z,57.33
2023-04-08T19:50:58.022Z,84.30
2023-04-08T19:53:27.765Z,51.17
2023-04-08T19:56:01.844Z,84.25
2023-04-08T19:58:31.671Z,55.13
2023-04-08T20:01:01.347Z,56.08
2023-04-08T20:03:31.270Z,64.20
2023-04-08T20:06:03.892Z,46.85
2023-04-08T20:08:34.791Z,57.20
2023-04-08T20:11:04.851Z,47.47
2023-04-08T20:13:34.659Z,46.60
2023-04-08T20:16:04.593Z,43.75
2023-04-08T20:18:34.478Z,43.97
2023-04-08T20:21:07.338Z,48.72
2023-04-08T20:23:40.445Z,46.38
2023-04-08T20:26:10.385Z,60.90
2023-04-08T20:28:40.077Z,57.90
2023-04-08T20:31:10.622Z,67.75
2023-04-08T20:33:44.154Z,67.45
2023-04-08T20:36:16.545Z,57.00
2023-04-08T20:38:46.231Z,50.38
2023-04-08T20:41:20.597Z,49.30
2023-04-08T20:43:50.292Z,46.75
2023-04-08T20:46:20.196Z,51.72
2023-04-08T20:48:50.565Z,63.80
2023-04-08T20:51:23.115Z,65.60
2023-04-08T20:53:52.806Z,67.88
2023-04-08T20:56:22.967Z,47.55
2023-04-08T20:58:52.984Z,43.30
2023-04-08T21:01:24.246Z,39.65
2023-04-08T21:03:54.940Z,39.42
2023-04-08T21:06:27.709Z,42.58
2023-04-08T21:08:57.417Z,43.63
2023-04-08T21:11:28.626Z,45.78
2023-04-08T21:13:58.318Z,43.15
2023-04-08T21:16:29.316Z,40.45
2023-04-08T21:19:01.413Z,45.22
2023-04-08T21:21:34.042Z,41.55
2023-04-08T21:24:04.039Z,52.55
2023-04-08T21:26:33.755Z,76.55
2023-04-08T21:29:03.588Z,40.83
2023-04-08T21:31:33.300Z,52.58
2023-04-08T21:34:03.022Z,53.35
2023-04-08T21:36:35.294Z,36.08
2023-04-08T21:39:04.973Z,43.50
2023-04-08T21:41:34.756Z,32.28
2023-04-08T21:44:04.500Z,229.80
2023-04-08T21:46:34.222Z,95.60
2023-04-08T21:49:03.921Z,61.40
2023-04-08T21:51:36.408Z,59.47
2023-04-08T21:54:06.151Z,88.85
2023-04-08T21:56:35.875Z,82.82
2023-04-08T21:59:05.601Z,69.90
2023-04-08T22:01:35.322Z,55.50
2023-04-08T22:04:05.180Z,56.47
2023-04-08T22:06:37.629Z,67.05
2023-04-08T22:09:07.385Z,65.82
2023-04-08T22:11:37.081Z,39.70
2023-04-08T22:14:06.758Z,35.17
2023-04-08T22:16:36.901Z,35.50
2023-04-08T22:19:07.016Z,49.95
2023-04-08T22:21:39.334Z,41.67
2023-04-08T22:24:09.217Z,38.10
2023-04-08T22:26:38.924Z,39.47
2023-04-08T22:29:08.600Z,46.88
2023-04-08T22:31:38.352Z,51.92
2023-04-08T22:34:08.027Z,43.35
2023-04-08T22:36:40.493Z,47.42
2023-04-08T22:39:10.208Z,35.10
2023-04-08T22:41:39.953Z,34.40
2023-04-08T22:44:09.779Z,35.38
2023-04-08T22:46:39.621Z,34.00
2023-04-08T22:49:09.356Z,38.58
2023-04-08T22:51:43.123Z,34.45
2023-04-08T22:54:12.813Z,36.00
2023-04-08T22:56:42.500Z,40.05
2023-04-08T22:59:12.176Z,32.15
2023-04-08T23:01:41.948Z,38.85
2023-04-08T23:04:11.734Z,40.28
2023-04-08T23:06:44.040Z,35.78
2023-04-08T23:09:13.698Z,40.33
2023-04-08T23:11:43.442Z,35.58
2023-04-08T23:14:13.352Z,31.05
2023-04-08T23:16:43.083Z,29.55
2023-04-08T23:19:12.748Z,38.75
2023-04-08T23:21:45.024Z,37.33
2023-04-08T23:24:15.283Z,37.97
2023-04-08T23:26:44.951Z,38.08
2023-04-08T23:29:14.650Z,34.58
2023-04-08T23:31:44.426Z,38.28
2023-04-08T23:34:14.113Z,50.08
2023-04-08T23:36:46.449Z,48.80
2023-04-08T23:39:16.152Z,34.75
2023-04-08T23:41:45.930Z,37.78
2023-04-08T23:44:15.612Z,39.72
2023-04-08T23:46:45.317Z,37.65
2023-04-08T23:49:15.046Z,46.75
2023-04-08T23:51:47.354Z,42.05
2023-04-08T23:54:17.029Z,39.10
2023-04-08T23:56:46.742Z,39.47
2023-04-08T23:59:16.414Z,43.83
